To NAV CANADA Home Page Login to a new session Search on AWWS site Disclaimer Vers la page française équivalente Tips FAQ What's new on the site To the Forecasts and Observations / NOTAM section To "File a Flight Plan" website Publications and other links Update of the User's profile FIC Telephone Numbers My Weather Data Folder Route Weather Data Regional Weather Data Local Weather Data To the Forecasts and Observations / NOTAM section
Request Generated 04/24/2019 at 16:42:17 UTC . Weather information available at that time is displayed.

METAR/TAF

PETAWAWA/ON    

METAR CYWA 241600Z AUTO 31011G18KT 280V340 8SM OVC015 OVC037 05/03 A2984 RMK SLP109=
SPECI CYWA 241546Z AUTO 32012KT 9SM OVC015 OVC037 06/02 A2983=
METAR CYWA 241500Z AUTO 31009KT 9SM OVC013 05/02 A2981 RMK SLP101=
SPECI CYWA 241451Z AUTO 32008G17KT 9SM OVC013 OVC029 05/02 A2981=
SPECI CYWA 241403Z AUTO 31008KT 9SM FEW011 OVC015 04/02 A2979=
METAR CYWA 241400Z AUTO 31007KT 9SM OVC013 04/02 A2979 RMK SLP092=

TAF CYWA 241130Z 2412/2424 30010G20KT P6SM OVC008 TEMPO 2412/2415
SCT008 OVC020
FM241500 30010G20KT P6SM OVC012 TEMPO 2415/2418 SCT012 OVC025
FM241800 30010G20KT P6SM OVC025
RMK FCST BASED ON AUTO OBS. NXT FCST BY 241800Z=
Your time UTC time
Weather data provided by Environment Canada and NAV CANADA